If you wish to contribute or participate in the discussions about articles you are invited to join SKYbrary as a registered user

 Actions

Yasuj Airport

From SKYbrary Wiki

OISY
Airport
ICAO: OISY – IATA: YES
Summary
Name Yasuj Airport
Region Middle East
Territory Iran IR.gif
Location Balahzar, Kohgiluyeh and Boyer-Ahmad Province
Serving Yasuj
Elevation 1,810.207 m
5,939 ft1,810.207 m
Coordinates 30° 41' 59.19" N, 51° 33' 9.94" E
Runways
Designator Length Width Surface ROPS
13/31 2598 m8,523.622 ft
45 m147.638 ft
ASP /


METAR
Observation OISY 210300Z 00000KT CAVOK 07/01 Q1018
Station Yasouj / National
Date/Time 21 April 2019 03:00:00
Wind direction
Wind speed 00 kts
Lowest cloud amount clouds and visibility OK
Temperature 7°C
Dew point 1°C
Humidity 65%
QNH 1018 hPa
Weather condition n/a

Airport serving the city of Yasuj, Iran.

Climatology

Mediterranean climate (Köppen climate classification Csa). Hot summers and frequent rain in the winter months.

Maps

Terrain

Loading map...

Airport Layout

Loading map...


Accidents & Serious Incidents at or in vicinity of OISY

None on SKYbrary